Hlavní strana
METAR-TAF:

METAR-TAF

Letiště :

Versailles, Ohio, Spojené státy americké

zeměpisná šířka: 40-12-16N, zeměpisná délka: 084-31-55W, výška: 307 m

Aktuální stav počasí

Zpráva byla vytvořena před 20 minutami, v 01:50 UTC
Severoseverozápadní vítr 4 kt
Teplota 0°C
Vlhkost vzduchu 100%
Tlak 1019 hPa
Viditelnost: 16.1 km
Polojasno ve výšce 1700 ft
Polojasno ve výšce 2600 ft
Polojasno ve výšce 3300 ft

METAR: KVES 220150Z AUTO 34004KT 10SM SCT017 SCT026 SCT033 00/00 A3009 RMK AO2 PNO

Čas: 22:10 (02:10 UTC)


TAF: chybějící

Stav a předpovědi počasí z více než 4 000 letišť (zprávy METAR a TAF).

Červené a žluté tečky na mapě představují dostupné meteorologické stanice.

Když kurzor umístíte na tečku, zobrazí se název stanice.

Pak kliknutím zobrazíte stav a předpověď počasí.

Chcete-li změnit mapu, kliknutím na zelené tlačítko se znaménkem +mapu přiblížíte, kliknutím na zelené tlačítko se znaménkem – mapu oddálíte a kliknutím na zelené šipky přejdete na sousední mapy.


METAR-TAF: